createdAt,value
2022-07-25T00:01:56.844Z,26.33
2022-07-25T00:04:25.721Z,26.32
2022-07-25T00:06:53.812Z,26.31
2022-07-25T00:09:21.199Z,26.29
2022-07-25T00:11:48.914Z,26.27
2022-07-25T00:14:16.516Z,26.23
2022-07-25T00:16:44.234Z,26.24
2022-07-25T00:19:11.913Z,26.23
2022-07-25T00:21:39.347Z,26.18
2022-07-25T00:24:07.775Z,26.19
2022-07-25T00:26:40.004Z,26.19
2022-07-25T00:29:08.132Z,26.16
2022-07-25T00:31:35.940Z,26.15
2022-07-25T00:34:04.500Z,26.15
2022-07-25T00:36:33.068Z,26.11
2022-07-25T00:39:00.726Z,26.09
2022-07-25T00:41:28.389Z,26.11
2022-07-25T00:43:55.998Z,26.10
2022-07-25T00:46:23.932Z,26.09
2022-07-25T00:48:51.827Z,26.09
2022-07-25T00:51:22.534Z,26.06
2022-07-25T00:53:50.025Z,26.02
2022-07-25T00:56:17.730Z,26.02
2022-07-25T00:58:45.610Z,26.03
2022-07-25T01:01:13.058Z,26.02
2022-07-25T01:03:40.769Z,26.00
2022-07-25T01:06:08.952Z,25.97
2022-07-25T01:08:36.757Z,25.96
2022-07-25T01:11:05.779Z,25.97
2022-07-25T01:13:34.579Z,25.98
2022-07-25T01:16:02.173Z,25.94
2022-07-25T01:18:30.112Z,25.95
2022-07-25T01:20:57.803Z,25.91
2022-07-25T01:23:25.242Z,25.91
2022-07-25T01:25:53.174Z,25.92
2022-07-25T01:28:20.721Z,25.90
2022-07-25T01:30:48.266Z,25.88
2022-07-25T01:33:20.748Z,25.88
2022-07-25T01:35:48.761Z,25.86
2022-07-25T01:38:16.874Z,25.85
2022-07-25T01:40:44.830Z,25.85
2022-07-25T01:43:12.617Z,25.83
2022-07-25T01:45:40.169Z,25.85
2022-07-25T01:48:08.380Z,25.84
2022-07-25T01:50:36.422Z,25.81
2022-07-25T01:53:04.470Z,25.79
2022-07-25T01:55:32.253Z,25.79
2022-07-25T01:58:00.018Z,25.78
2022-07-25T02:00:29.414Z,25.78
2022-07-25T02:03:16.122Z,25.77
2022-07-25T02:05:43.590Z,25.76
2022-07-25T02:08:11.375Z,25.76
2022-07-25T02:10:39.554Z,25.74
2022-07-25T02:13:07.242Z,25.74
2022-07-25T02:15:35.856Z,25.72
2022-07-25T02:18:03.469Z,25.75
2022-07-25T02:20:31.584Z,25.73
2022-07-25T02:22:59.474Z,25.73
2022-07-25T02:25:26.916Z,25.72
2022-07-25T02:27:54.519Z,25.71
2022-07-25T02:30:22.977Z,25.70
2022-07-25T02:32:50.444Z,25.68
2022-07-25T02:35:18.004Z,25.69
2022-07-25T02:37:45.717Z,25.67
2022-07-25T02:40:13.407Z,25.66
2022-07-25T02:42:41.214Z,25.66
2022-07-25T02:45:09.317Z,25.65
2022-07-25T02:47:36.852Z,25.63
2022-07-25T02:50:05.220Z,25.61
2022-07-25T02:52:32.920Z,25.57
2022-07-25T02:55:04.885Z,25.57
2022-07-25T02:57:36.993Z,25.60
2022-07-25T03:00:06.697Z,25.60
2022-07-25T03:02:34.865Z,25.56
2022-07-25T03:05:04.073Z,25.56
2022-07-25T03:07:31.495Z,25.58
2022-07-25T03:09:58.948Z,25.56
2022-07-25T03:12:26.698Z,25.49
2022-07-25T03:14:54.121Z,25.50
2022-07-25T03:17:21.597Z,25.52
2022-07-25T03:19:49.280Z,25.47
2022-07-25T03:22:16.893Z,25.44
2022-07-25T03:24:44.493Z,25.47
2022-07-25T03:27:12.369Z,25.49
2022-07-25T03:29:39.798Z,25.48
2022-07-25T03:32:08.212Z,25.45
2022-07-25T03:34:36.505Z,25.39
2022-07-25T03:37:04.421Z,25.46
2022-07-25T03:39:33.944Z,25.51
2022-07-25T03:42:01.661Z,25.49
2022-07-25T03:44:29.279Z,25.47
2022-07-25T03:46:56.797Z,25.47
2022-07-25T03:49:24.699Z,25.50
2022-07-25T03:51:52.209Z,25.51
2022-07-25T03:54:19.669Z,25.51
2022-07-25T03:56:50.117Z,25.51
2022-07-25T03:59:20.185Z,25.51
2022-07-25T04:01:49.766Z,25.50
2022-07-25T04:04:19.013Z,25.51
2022-07-25T04:06:47.114Z,25.54
2022-07-25T04:09:15.777Z,25.54
2022-07-25T04:11:43.456Z,25.54
2022-07-25T04:14:11.951Z,25.56
2022-07-25T04:16:39.955Z,25.55
2022-07-25T04:19:08.642Z,25.57
2022-07-25T04:21:36.549Z,25.59
2022-07-25T04:24:04.377Z,25.55
2022-07-25T04:26:32.285Z,25.52
2022-07-25T04:29:02.987Z,25.52
2022-07-25T04:31:30.587Z,25.54
2022-07-25T04:33:59.370Z,25.55
2022-07-25T04:36:27.206Z,25.59
2022-07-25T04:38:54.637Z,25.61
2022-07-25T04:41:22.391Z,25.64
2022-07-25T04:43:49.812Z,25.65
2022-07-25T04:46:21.259Z,25.66
2022-07-25T04:48:50.108Z,25.68
2022-07-25T04:51:18.262Z,25.71
2022-07-25T04:53:46.457Z,25.74
2022-07-25T04:56:14.496Z,25.76
2022-07-25T04:58:42.243Z,25.77
2022-07-25T05:01:09.774Z,25.79
2022-07-25T05:03:37.418Z,25.83
2022-07-25T05:06:05.085Z,25.86
2022-07-25T05:08:32.562Z,25.91
2022-07-25T05:11:00.301Z,25.93
2022-07-25T05:13:27.934Z,25.91
2022-07-25T05:15:55.402Z,25.89
2022-07-25T05:18:24.800Z,25.88
2022-07-25T05:20:52.281Z,25.88
2022-07-25T05:23:20.240Z,25.90
2022-07-25T05:25:47.877Z,25.91
2022-07-25T05:28:15.320Z,25.94
2022-07-25T05:30:42.739Z,25.97
2022-07-25T05:33:10.448Z,26.01
2022-07-25T05:35:37.883Z,26.03
2022-07-25T05:38:05.435Z,25.98
2022-07-25T05:40:33.303Z,25.95
2022-07-25T05:43:03.174Z,25.94
2022-07-25T05:45:32.252Z,25.93
2022-07-25T05:47:59.975Z,25.91
2022-07-25T05:50:27.418Z,25.91
2022-07-25T05:52:54.996Z,25.91
2022-07-25T05:55:22.849Z,25.93
2022-07-25T05:57:50.234Z,25.91
2022-07-25T06:00:17.889Z,25.93
2022-07-25T06:02:45.547Z,25.91
2022-07-25T06:05:13.149Z,25.93
2022-07-25T06:07:41.279Z,25.93
2022-07-25T06:10:09.667Z,25.96
2022-07-25T06:12:37.142Z,25.97
2022-07-25T06:15:05.686Z,25.97
2022-07-25T06:17:33.578Z,25.99
2022-07-25T06:20:01.157Z,25.99
2022-07-25T06:22:31.200Z,26.00
2022-07-25T06:24:58.829Z,26.02
2022-07-25T06:27:29.525Z,26.02
2022-07-25T06:29:57.068Z,26.03
2022-07-25T06:32:24.808Z,26.02
2022-07-25T06:34:52.212Z,26.04
2022-07-25T06:37:19.683Z,26.04
2022-07-25T06:39:47.390Z,26.05
2022-07-25T06:42:14.810Z,26.09
2022-07-25T06:44:44.017Z,26.09
2022-07-25T06:47:14.386Z,26.11
2022-07-25T06:49:42.275Z,26.12
2022-07-25T06:52:10.143Z,26.13
2022-07-25T06:54:37.988Z,26.15
2022-07-25T06:57:06.284Z,26.15
2022-07-25T06:59:33.916Z,26.16
2022-07-25T07:02:02.193Z,26.18
2022-07-25T07:04:29.744Z,26.18
2022-07-25T07:06:57.161Z,26.19
2022-07-25T07:09:24.815Z,26.22
2022-07-25T07:11:52.246Z,26.24
2022-07-25T07:14:19.900Z,26.24
2022-07-25T07:16:47.659Z,26.26
2022-07-25T07:19:15.482Z,26.26
2022-07-25T07:21:43.346Z,26.28
2022-07-25T07:24:23.374Z,26.28
2022-07-25T07:26:53.749Z,26.32
2022-07-25T07:29:21.660Z,26.33
2022-07-25T07:31:49.459Z,26.32
2022-07-25T07:34:16.884Z,26.31
2022-07-25T07:36:44.654Z,26.31
2022-07-25T07:39:12.117Z,26.32
2022-07-25T07:41:39.664Z,26.32
2022-07-25T07:44:07.424Z,26.32
2022-07-25T07:46:35.016Z,26.31
2022-07-25T07:49:02.899Z,26.32
2022-07-25T07:51:30.712Z,26.31
2022-07-25T07:54:16.848Z,26.31
2022-07-25T07:56:45.724Z,26.30
2022-07-25T07:59:13.146Z,26.32
2022-07-25T08:01:40.674Z,26.31
2022-07-25T08:04:08.495Z,26.33
2022-07-25T08:06:36.660Z,26.33
2022-07-25T08:09:04.548Z,26.36
2022-07-25T08:11:32.496Z,26.38
2022-07-25T08:14:00.142Z,26.39
2022-07-25T08:16:27.860Z,26.38
2022-07-25T08:18:55.669Z,26.38
2022-07-25T08:21:23.169Z,26.39
2022-07-25T08:23:50.752Z,26.41
2022-07-25T08:26:18.423Z,26.42
2022-07-25T08:28:46.469Z,26.44
2022-07-25T08:31:14.752Z,26.46
2022-07-25T08:33:42.491Z,26.47
2022-07-25T08:36:11.530Z,26.48
2022-07-25T08:38:38.961Z,26.46
2022-07-25T08:41:08.473Z,26.48
2022-07-25T08:43:37.830Z,26.53
2022-07-25T08:46:06.261Z,26.54
2022-07-25T08:48:34.749Z,26.51
2022-07-25T08:51:02.758Z,26.55
2022-07-25T08:53:33.160Z,26.60
2022-07-25T08:56:11.202Z,26.63
2022-07-25T08:58:41.643Z,26.65
2022-07-25T09:01:09.561Z,26.68
2022-07-25T09:03:36.980Z,26.70
2022-07-25T09:06:21.522Z,26.73
2022-07-25T09:08:57.637Z,26.74
2022-07-25T09:11:35.952Z,26.74
2022-07-25T09:14:14.965Z,26.76
2022-07-25T09:16:45.226Z,26.78
2022-07-25T09:19:21.290Z,26.82
2022-07-25T09:22:07.025Z,26.85
2022-07-25T09:24:45.217Z,26.86
2022-07-25T09:27:13.372Z,26.88
2022-07-25T09:29:47.471Z,26.88
2022-07-25T09:32:19.881Z,26.87
2022-07-25T09:34:49.696Z,27.17
2022-07-25T09:37:19.522Z,27.13
2022-07-25T09:39:49.778Z,27.07
2022-07-25T09:42:28.457Z,27.08
2022-07-25T09:45:06.331Z,27.09
2022-07-25T09:47:36.551Z,27.08
2022-07-25T09:50:05.799Z,27.07
2022-07-25T09:52:33.800Z,27.04
2022-07-25T09:55:04.071Z,27.04
2022-07-25T09:57:31.638Z,27.00
2022-07-25T10:00:00.502Z,27.02
2022-07-25T10:02:49.890Z,27.06
2022-07-25T10:05:42.446Z,27.04
2022-07-25T10:08:11.783Z,27.07
2022-07-25T10:10:43.128Z,27.08
2022-07-25T10:13:28.395Z,27.09
2022-07-25T10:15:56.157Z,27.12
2022-07-25T10:18:27.603Z,27.12
2022-07-25T10:21:24.476Z,27.11
2022-07-25T10:24:05.562Z,27.12
2022-07-25T10:26:36.129Z,27.13
2022-07-25T10:29:09.323Z,27.17
2022-07-25T10:31:44.865Z,27.18
2022-07-25T10:34:15.870Z,27.20
2022-07-25T10:36:49.421Z,27.24
2022-07-25T10:39:19.390Z,27.25
2022-07-25T10:41:55.990Z,27.29
2022-07-25T10:44:23.908Z,27.32
2022-07-25T10:46:51.355Z,27.38
2022-07-25T10:49:32.166Z,27.35
2022-07-25T10:52:05.654Z,27.84
2022-07-25T10:54:36.130Z,27.70
2022-07-25T10:57:06.718Z,27.58
2022-07-25T10:59:36.837Z,27.54
2022-07-25T11:02:06.983Z,27.51
2022-07-25T11:04:35.115Z,27.51
2022-07-25T11:07:11.495Z,27.49
2022-07-25T11:09:41.003Z,27.49
2022-07-25T11:12:09.189Z,27.50
2022-07-25T11:14:42.670Z,27.53
2022-07-25T11:17:17.000Z,27.54
2022-07-25T11:19:55.469Z,27.52
2022-07-25T11:22:24.385Z,27.52
2022-07-25T11:24:52.098Z,27.51
2022-07-25T11:27:27.374Z,27.49
2022-07-25T11:30:16.455Z,27.50
2022-07-25T11:32:46.999Z,27.51
2022-07-25T11:35:15.760Z,27.55
2022-07-25T11:37:48.591Z,27.56
2022-07-25T11:40:19.266Z,27.57
2022-07-25T11:42:48.313Z,27.57
2022-07-25T11:45:23.131Z,27.58
2022-07-25T11:48:02.924Z,27.60
2022-07-25T11:50:31.774Z,27.61
2022-07-25T11:53:05.444Z,27.63
2022-07-25T11:55:37.253Z,27.64
2022-07-25T11:58:05.810Z,27.68
2022-07-25T12:00:40.701Z,27.69
2022-07-25T12:03:19.444Z,27.70
2022-07-25T12:05:49.153Z,27.71
2022-07-25T12:08:19.485Z,27.72
2022-07-25T12:10:48.481Z,27.76
2022-07-25T12:13:24.390Z,27.77
2022-07-25T12:15:52.964Z,27.76
2022-07-25T12:18:20.358Z,27.76
2022-07-25T12:20:47.818Z,27.78
2022-07-25T12:23:15.433Z,27.79
2022-07-25T12:25:45.442Z,27.81
2022-07-25T12:28:13.334Z,27.80
2022-07-25T12:30:44.650Z,27.82
2022-07-25T12:33:13.016Z,27.85
2022-07-25T12:35:41.996Z,27.88
2022-07-25T12:38:11.035Z,27.88
2022-07-25T12:40:38.882Z,27.92
2022-07-25T12:43:07.037Z,27.94
2022-07-25T12:45:35.424Z,27.96
2022-07-25T12:48:04.445Z,27.97
2022-07-25T12:50:32.003Z,27.98
2022-07-25T12:52:59.850Z,27.97
2022-07-25T12:55:27.838Z,28.00
2022-07-25T12:57:55.362Z,28.01
2022-07-25T13:00:23.287Z,28.03
2022-07-25T13:02:52.167Z,28.03
2022-07-25T13:05:19.969Z,28.05
2022-07-25T13:07:51.521Z,28.06
2022-07-25T13:10:19.729Z,28.05
2022-07-25T13:12:47.435Z,28.04
2022-07-25T13:15:15.660Z,28.03
2022-07-25T13:17:43.225Z,28.03
2022-07-25T13:20:11.294Z,28.06
2022-07-25T13:22:39.087Z,28.07
2022-07-25T13:25:06.991Z,28.09
2022-07-25T13:27:34.461Z,28.11
2022-07-25T13:30:02.409Z,28.13
2022-07-25T13:32:31.759Z,28.16
2022-07-25T13:34:59.690Z,28.16
2022-07-25T13:37:27.374Z,28.27
2022-07-25T13:39:55.362Z,28.23
2022-07-25T13:42:22.920Z,28.23
2022-07-25T13:44:50.750Z,28.23
2022-07-25T13:47:18.418Z,28.26
2022-07-25T13:49:45.862Z,28.27
2022-07-25T13:52:13.634Z,28.27
2022-07-25T13:54:41.254Z,28.27
2022-07-25T13:57:09.398Z,28.29
2022-07-25T13:59:37.169Z,28.29
2022-07-25T14:02:05.305Z,28.31
2022-07-25T14:04:33.016Z,28.31
2022-07-25T14:07:01.207Z,28.31
2022-07-25T14:09:28.812Z,28.29
2022-07-25T14:11:56.514Z,28.33
2022-07-25T14:14:24.252Z,28.35
2022-07-25T14:16:52.934Z,28.34
2022-07-25T14:19:20.740Z,28.33
2022-07-25T14:21:48.389Z,28.34
2022-07-25T14:24:15.910Z,28.35
2022-07-25T14:26:43.749Z,28.37
2022-07-25T14:29:12.163Z,28.39
2022-07-25T14:31:40.584Z,28.41
2022-07-25T14:34:08.586Z,28.40
2022-07-25T14:36:36.606Z,28.42
2022-07-25T14:39:05.540Z,28.41
2022-07-25T14:41:33.614Z,28.42
2022-07-25T14:44:01.402Z,28.41
2022-07-25T14:46:28.935Z,28.41
2022-07-25T14:48:56.493Z,28.43
2022-07-25T14:51:24.622Z,28.44
2022-07-25T14:53:53.431Z,28.48
2022-07-25T14:56:21.088Z,28.49
2022-07-25T14:58:48.953Z,28.50
2022-07-25T15:01:18.826Z,28.51
2022-07-25T15:03:46.625Z,28.51
2022-07-25T15:06:14.328Z,28.51
2022-07-25T15:08:42.764Z,28.52
2022-07-25T15:11:10.787Z,28.53
2022-07-25T15:13:38.420Z,28.52
2022-07-25T15:16:06.173Z,28.52
2022-07-25T15:18:46.988Z,28.50
2022-07-25T15:21:21.819Z,28.53
2022-07-25T15:23:49.653Z,28.55
2022-07-25T15:26:17.364Z,28.55
2022-07-25T15:28:45.027Z,28.56
2022-07-25T15:31:12.817Z,28.58
2022-07-25T15:33:40.291Z,28.58
2022-07-25T15:36:08.662Z,28.61
2022-07-25T15:38:36.280Z,28.62
2022-07-25T15:41:03.860Z,28.64
2022-07-25T15:43:33.334Z,28.64
2022-07-25T15:46:00.766Z,28.65
2022-07-25T15:48:29.107Z,28.63
2022-07-25T15:50:58.767Z,28.60
2022-07-25T15:53:26.610Z,28.60
2022-07-25T15:55:54.081Z,28.63
2022-07-25T15:58:21.812Z,28.65
2022-07-25T16:00:49.291Z,28.66
2022-07-25T16:03:17.125Z,28.67
2022-07-25T16:05:46.266Z,28.69
2022-07-25T16:08:14.057Z,28.70
2022-07-25T16:10:41.867Z,28.71
2022-07-25T16:13:09.686Z,28.71
2022-07-25T16:15:37.166Z,28.71
2022-07-25T16:18:04.607Z,28.70
2022-07-25T16:20:33.229Z,28.70
2022-07-25T16:23:01.385Z,28.70
2022-07-25T16:25:29.831Z,28.69
2022-07-25T16:27:58.744Z,28.70
2022-07-25T16:30:27.834Z,28.71
2022-07-25T16:32:55.619Z,28.71
2022-07-25T16:35:23.995Z,28.71
2022-07-25T16:37:51.461Z,28.71
2022-07-25T16:40:19.125Z,28.71
2022-07-25T16:42:50.200Z,28.70
2022-07-25T16:45:17.780Z,28.70
2022-07-25T16:47:45.340Z,28.68
2022-07-25T16:50:13.411Z,28.68
2022-07-25T16:52:40.967Z,28.68
2022-07-25T16:55:08.723Z,28.67
2022-07-25T16:57:37.887Z,28.67
2022-07-25T17:00:08.144Z,28.66
2022-07-25T17:02:35.799Z,28.65
2022-07-25T17:05:04.673Z,28.63
2022-07-25T17:07:32.618Z,28.62
2022-07-25T17:10:00.134Z,28.62
2022-07-25T17:12:28.008Z,28.61
2022-07-25T17:14:55.467Z,28.62
2022-07-25T17:17:23.215Z,28.62
2022-07-25T17:19:50.863Z,28.61
2022-07-25T17:22:18.416Z,28.60
2022-07-25T17:24:46.073Z,28.60
2022-07-25T17:27:14.607Z,28.59
2022-07-25T17:29:42.551Z,28.61
2022-07-25T17:32:10.840Z,28.59
2022-07-25T17:34:38.541Z,28.58
2022-07-25T17:37:06.985Z,28.60
2022-07-25T17:39:35.166Z,28.58
2022-07-25T17:42:07.131Z,28.58
2022-07-25T17:44:35.291Z,28.57
2022-07-25T17:47:04.031Z,28.57
2022-07-25T17:49:32.052Z,28.56
2022-07-25T17:51:59.572Z,28.55
2022-07-25T17:54:27.078Z,28.55
2022-07-25T17:56:54.835Z,28.54
2022-07-25T17:59:22.234Z,28.53
2022-07-25T18:01:50.330Z,28.53
2022-07-25T18:04:18.078Z,28.52
2022-07-25T18:06:45.773Z,28.51
2022-07-25T18:09:18.121Z,28.50
2022-07-25T18:11:46.598Z,28.48
2022-07-25T18:14:14.102Z,28.46
2022-07-25T18:16:41.678Z,28.45
2022-07-25T18:19:09.381Z,28.43
2022-07-25T18:21:36.843Z,28.39
2022-07-25T18:24:06.278Z,28.37
2022-07-25T18:26:34.599Z,28.35
2022-07-25T18:29:02.109Z,28.32
2022-07-25T18:31:29.667Z,28.29
2022-07-25T18:33:57.523Z,28.28
2022-07-25T18:36:25.350Z,28.24
2022-07-25T18:38:53.850Z,28.21
2022-07-25T18:41:30.396Z,28.19
2022-07-25T18:43:58.380Z,28.16
2022-07-25T18:46:26.588Z,28.13
2022-07-25T18:48:54.918Z,28.12
2022-07-25T18:51:22.705Z,28.09
2022-07-25T18:53:50.788Z,28.07
2022-07-25T18:56:18.328Z,28.03
2022-07-25T18:58:45.786Z,28.02
2022-07-25T19:01:13.914Z,27.99
2022-07-25T19:03:41.455Z,27.99
2022-07-25T19:06:10.028Z,27.97
2022-07-25T19:08:38.575Z,27.95
2022-07-25T19:11:07.275Z,27.93
2022-07-25T19:13:53.413Z,27.90
2022-07-25T19:16:21.262Z,27.88
2022-07-25T19:18:48.875Z,27.86
2022-07-25T19:21:16.891Z,27.85
2022-07-25T19:23:50.530Z,27.82
2022-07-25T19:26:20.323Z,27.79
2022-07-25T19:28:48.884Z,27.79
2022-07-25T19:31:16.669Z,27.76
2022-07-25T19:33:45.911Z,27.72
2022-07-25T19:36:15.992Z,27.70
2022-07-25T19:38:43.532Z,27.67
2022-07-25T19:41:11.293Z,27.65
2022-07-25T19:43:39.059Z,27.65
2022-07-25T19:46:06.662Z,27.61
2022-07-25T19:48:34.347Z,27.61
2022-07-25T19:51:02.178Z,27.60
2022-07-25T19:53:31.026Z,27.58
2022-07-25T19:55:58.571Z,27.57
2022-07-25T19:58:26.310Z,27.53
2022-07-25T20:00:53.819Z,27.53
2022-07-25T20:03:23.540Z,27.51
2022-07-25T20:05:52.137Z,27.48
2022-07-25T20:08:19.614Z,27.49
2022-07-25T20:10:48.392Z,27.55
2022-07-25T20:13:16.309Z,27.57
2022-07-25T20:15:43.961Z,27.60
2022-07-25T20:18:17.422Z,27.61
2022-07-25T20:20:47.649Z,27.65
2022-07-25T20:23:15.146Z,27.64
2022-07-25T20:25:42.772Z,27.67
2022-07-25T20:28:11.120Z,27.68
2022-07-25T20:30:38.842Z,27.67
2022-07-25T20:33:09.601Z,27.69
2022-07-25T20:35:38.582Z,27.69
2022-07-25T20:38:09.769Z,27.67
2022-07-25T20:40:48.144Z,27.69
2022-07-25T20:43:18.202Z,27.68
2022-07-25T20:45:47.505Z,27.68
2022-07-25T20:48:15.670Z,27.68
2022-07-25T20:50:46.263Z,27.70
2022-07-25T20:53:14.587Z,27.69
2022-07-25T20:55:42.358Z,27.69
2022-07-25T20:58:10.191Z,27.70
2022-07-25T21:00:37.719Z,27.69
2022-07-25T21:03:05.517Z,27.69
2022-07-25T21:05:37.705Z,27.67
2022-07-25T21:08:06.528Z,27.65
2022-07-25T21:10:34.158Z,27.64
2022-07-25T21:13:01.862Z,27.64
2022-07-25T21:15:30.853Z,27.63
2022-07-25T21:17:58.521Z,27.62
2022-07-25T21:20:26.366Z,27.62
2022-07-25T21:22:55.402Z,27.63
2022-07-25T21:25:23.002Z,27.62
2022-07-25T21:27:50.701Z,27.61
2022-07-25T21:30:18.231Z,27.62
2022-07-25T21:32:45.775Z,27.59
2022-07-25T21:35:13.409Z,27.59
2022-07-25T21:37:40.957Z,27.56
2022-07-25T21:40:09.264Z,27.57
2022-07-25T21:42:37.374Z,27.57
2022-07-25T21:45:05.848Z,27.57
2022-07-25T21:47:33.339Z,27.56
2022-07-25T21:50:24.235Z,27.53
2022-07-25T21:52:53.243Z,27.55
2022-07-25T21:55:21.765Z,27.55
2022-07-25T21:57:51.251Z,27.54
2022-07-25T22:00:20.280Z,27.52
2022-07-25T22:02:49.059Z,27.51
2022-07-25T22:05:18.879Z,27.49
2022-07-25T22:07:47.581Z,27.49
2022-07-25T22:10:17.598Z,27.49
2022-07-25T22:12:46.014Z,27.47
2022-07-25T22:15:14.728Z,27.47
2022-07-25T22:17:48.507Z,27.46
2022-07-25T22:20:18.046Z,27.47
2022-07-25T22:22:47.449Z,27.46
2022-07-25T22:25:16.667Z,27.46
2022-07-25T22:27:44.373Z,27.45
2022-07-25T22:30:18.461Z,27.45
2022-07-25T22:32:48.411Z,27.44
2022-07-25T22:35:16.408Z,27.44
2022-07-25T22:37:45.137Z,27.43
2022-07-25T22:40:13.021Z,27.41
2022-07-25T22:42:40.856Z,27.42
2022-07-25T22:45:09.157Z,27.40
2022-07-25T22:47:36.533Z,27.39
2022-07-25T22:50:05.880Z,27.38
2022-07-25T22:52:34.921Z,27.38
2022-07-25T22:55:02.310Z,27.37
2022-07-25T22:57:29.862Z,27.35
2022-07-25T23:00:09.747Z,27.35
2022-07-25T23:02:38.267Z,27.35
2022-07-25T23:05:07.157Z,27.33
2022-07-25T23:07:34.975Z,27.35
2022-07-25T23:10:03.894Z,27.32
2022-07-25T23:12:31.181Z,27.33
2022-07-25T23:14:58.935Z,27.27
2022-07-25T23:17:26.519Z,27.25
2022-07-25T23:19:55.627Z,27.26
2022-07-25T23:22:24.921Z,27.26
2022-07-25T23:24:55.446Z,27.27
2022-07-25T23:27:23.385Z,27.26
2022-07-25T23:29:51.156Z,27.25
2022-07-25T23:32:19.265Z,27.22
2022-07-25T23:34:46.746Z,27.25
2022-07-25T23:37:14.198Z,27.24
2022-07-25T23:39:43.183Z,27.24
2022-07-25T23:42:10.614Z,27.20
2022-07-25T23:44:38.817Z,27.19
2022-07-25T23:47:10.080Z,27.18
2022-07-25T23:49:37.746Z,27.18
2022-07-25T23:52:05.525Z,27.16
2022-07-25T23:54:34.946Z,27.17
2022-07-25T23:57:02.663Z,27.17
2022-07-25T23:59:30.217Z,27.16
